^^
MeteoGriva-Weather Station Historical Data
 
Daily Summary for July 11, 2020 Units:  Metric    English   Both
Daily Weekly Monthly Yearly Custom
  Current: High: Low: Average:
Temperature: 26.5 °C 26.5 °C 19.4 °C 22.3 °C
Dew Point: 22.7 °C 22.7 °C 16.7 °C 18.8 °C
Humidity: 79.3% 92.2% 67% 81%
Wind Speed: 3.9km/h 7.6km/h 0km/h 2.3km/h
Wind Gust: 16.3km/h 20.1km/h - -
WindSSE - - South
Pressure: 1012.5 hPa 1013.5 hPa 1012.5 hPa -
Precipitation: 0.0 mm      
Historical Graphs
 
 
Tabular Data for July 11, 2020
Time Temperature Dew Point Pressure Wind Wind Speed Wind Gust Humidity Rainfall Rate (Hourly) solar
00:04 22 °C 18.2 °C 1012.5 hPa South 5 km/h 12.2 km/h 78.9% 0.0 mm 0 W/m2
00:09 22 °C 17.9 °C 1012.5 hPa South 4.8 km/h 16.3 km/h 77.6% 0.0 mm 0 W/m2
00:14 22.1 °C 17.7 °C 1012.9 hPa South 6 km/h 16.3 km/h 76% 0.0 mm 0 W/m2
00:19 22.1 °C 17.2 °C 1012.9 hPa SSW 5.1 km/h 16.3 km/h 74% 0.0 mm 0 W/m2
00:24 22.2 °C 17.2 °C 1012.9 hPa South 5.1 km/h 12.2 km/h 73.9% 0.0 mm 0 W/m2
00:29 22.2 °C 17.2 °C 1012.5 hPa South 7.3 km/h 16.3 km/h 73.1% 0.0 mm 0 W/m2
00:34 22.5 °C 17.5 °C 1012.9 hPa South 4.2 km/h 12.2 km/h 73.4% 0.0 mm 0 W/m2
00:39 22.5 °C 17.5 °C 1012.9 hPa South 5 km/h 12.2 km/h 73.4% 0.0 mm 0 W/m2
00:44 22.5 °C 17.4 °C 1012.9 hPa South 2.8 km/h 12.2 km/h 73% 0.0 mm 0 W/m2
00:49 22.5 °C 17.2 °C 1012.9 hPa SSW 5 km/h 16.3 km/h 72% 0.0 mm 0 W/m2
00:54 22.6 °C 17.3 °C 1012.9 hPa South 5.7 km/h 16.3 km/h 72% 0.0 mm 0 W/m2
00:59 22.6 °C 17.3 °C 1012.9 hPa South 5.4 km/h 12.2 km/h 72% 0.0 mm 0 W/m2
01:04 22.6 °C 17.3 °C 1012.9 hPa South 4.9 km/h 12.2 km/h 72.1% 0.0 mm 0 W/m2
01:09 22.6 °C 17.3 °C 1012.9 hPa South 4.2 km/h 16.3 km/h 72% 0.0 mm 0 W/m2
01:14 22.5 °C 17.2 °C 1012.9 hPa South 4.1 km/h 12.2 km/h 72% 0.0 mm 0 W/m2
01:19 22.5 °C 17.2 °C 1012.9 hPa South 4.7 km/h 16.3 km/h 72% 0.0 mm 0 W/m2
01:24 22.5 °C 17.2 °C 1012.9 hPa South 5.2 km/h 16.3 km/h 72% 0.0 mm 0 W/m2
01:29 22.5 °C 17.2 °C 1012.9 hPa South 4 km/h 12.2 km/h 72% 0.0 mm 0 W/m2
01:34 22.6 °C 17.4 °C 1012.9 hPa South 4.9 km/h 12.2 km/h 72.6% 0.0 mm 0 W/m2
01:39 22.6 °C 17.3 °C 1012.9 hPa South 4.4 km/h 16.3 km/h 72% 0.0 mm 0 W/m2
01:44 22.6 °C 17.3 °C 1012.9 hPa South 5.9 km/h 16.3 km/h 72% 0.0 mm 0 W/m2
01:49 22.6 °C 17.2 °C 1012.9 hPa South 6.6 km/h 16.3 km/h 71.3% 0.0 mm 0 W/m2
01:54 22.7 °C 17.2 °C 1012.5 hPa SSE 3.3 km/h 12.2 km/h 71% 0.0 mm 0 W/m2
01:59 22.7 °C 17.2 °C 1012.5 hPa South 4.9 km/h 12.2 km/h 70.9% 0.0 mm 0 W/m2
02:04 22.7 °C 16.9 °C 1012.5 hPa SSW 5.6 km/h 12.2 km/h 70% 0.0 mm 0 W/m2
02:09 22.7 °C 16.7 °C 1012.9 hPa South 3.3 km/h 12.2 km/h 69% 0.0 mm 0 W/m2
02:14 23.2 °C 17 °C 1012.9 hPa South 3 km/h 7.9 km/h 68.4% 0.0 mm 0 W/m2
02:19 23.2 °C 16.9 °C 1012.9 hPa SSW 2.5 km/h 7.9 km/h 67.7% 0.0 mm 0 W/m2
02:24 23.2 °C 16.7 °C 1012.9 hPa South 2 km/h 7.9 km/h 67% 0.0 mm 0 W/m2
02:29 23.3 °C 16.8 °C 1012.9 hPa Calm   7.9 km/h 67.1% 0.0 mm 0 W/m2
02:34 23.4 °C 17.1 °C 1012.9 hPa Calm   4 km/h 67.7% 0.0 mm 0 W/m2
02:39 23.4 °C 17.2 °C 1012.9 hPa Calm     68% 0.0 mm 0 W/m2
02:44 23.4 °C 17.2 °C 1012.9 hPa Calm   4 km/h 68% 0.0 mm 0 W/m2
02:49 23.3 °C 17.2 °C 1012.9 hPa Calm     68.6% 0.0 mm 0 W/m2
02:54 22.9 °C 17.2 °C 1012.9 hPa Calm     70.2% 0.0 mm 0 W/m2
02:59 22.7 °C 17.5 °C 1012.9 hPa Calm     72.8% 0.0 mm 0 W/m2
03:04 22.5 °C 17.4 °C 1012.9 hPa Calm     73% 0.0 mm 0 W/m2
03:09 22.4 °C 17.3 °C 1012.9 hPa Calm     73% 0.0 mm 0 W/m2
03:14 21.9 °C 17 °C 1012.9 hPa Calm   4 km/h 73.9% 0.0 mm 0 W/m2
03:19 21.7 °C 18.9 °C 1012.9 hPa Calm   7.9 km/h 84.4% 0.0 mm 0 W/m2
03:24 21.4 °C 19.1 °C 1012.9 hPa Calm     86.7% 0.0 mm 0 W/m2
03:29 21.1 °C 19.1 °C 1012.9 hPa Calm     88.6% 0.0 mm 0 W/m2
03:34 20 °C 17.9 °C 1012.9 hPa Calm     87.7% 0.0 mm 0 W/m2
03:39 19.6 °C 17.4 °C 1012.9 hPa Calm     86.8% 0.0 mm 0 W/m2
03:44 19.6 °C 17.1 °C 1012.9 hPa Calm     85.4% 0.0 mm 0 W/m2
03:49 19.6 °C 17.3 °C 1012.9 hPa Calm     86.3% 0.0 mm 0 W/m2
03:54 19.8 °C 18.1 °C 1012.9 hPa Calm     90% 0.0 mm 0 W/m2
03:59 19.7 °C 18.4 °C 1012.9 hPa Calm     92.1% 0.0 mm 0 W/m2
04:04 19.7 °C 18.4 °C 1012.9 hPa Calm     92.2% 0.0 mm 0 W/m2
04:09 19.7 °C 18.1 °C 1012.9 hPa Calm     90.7% 0.0 mm 0 W/m2
04:14 19.7 °C 17.8 °C 1012.9 hPa Calm     89% 0.0 mm 0 W/m2
04:19 19.6 °C 17.7 °C 1012.9 hPa Calm     89% 0.0 mm 0 W/m2
04:24 19.6 °C 17.8 °C 1012.9 hPa Calm     89.7% 0.0 mm 0 W/m2
04:29 19.6 °C 17.9 °C 1012.9 hPa Calm     89.8% 0.0 mm 0 W/m2
04:34 19.7 °C 18 °C 1012.9 hPa Calm     90% 0.0 mm 0 W/m2
04:39 19.7 °C 17.9 °C 1012.9 hPa Calm     89.5% 0.0 mm 0 W/m2
04:44 19.6 °C 17.9 °C 1012.9 hPa Calm   4 km/h 90% 0.0 mm 0 W/m2
04:49 19.6 °C 18.1 °C 1012.9 hPa Calm     90.9% 0.0 mm 0 W/m2
04:54 19.5 °C 17.9 °C 1012.9 hPa Calm     90.3% 0.0 mm 0 W/m2
04:59 19.4 °C 17.1 °C 1012.9 hPa South 0.5 km/h 4 km/h 86.4% 0.0 mm 0 W/m2
05:04 19.5 °C 16.8 °C 1012.9 hPa South 0.3 km/h 7.9 km/h 84.7% 0.0 mm 0 W/m2
05:09 19.7 °C 16.9 °C 1012.9 hPa SSW 0.3 km/h 7.9 km/h 84% 0.0 mm 0 W/m2
05:14 20.2 °C 17.4 °C 1012.9 hPa SSW 1.3 km/h 7.9 km/h 84% 0.0 mm 0 W/m2
05:19 20.4 °C 17.7 °C 1012.9 hPa SW 0.3 km/h 7.9 km/h 84.4% 0.0 mm 0 W/m2
05:24 20.4 °C 17.6 °C 1012.9 hPa South 0.9 km/h 7.9 km/h 84% 0.0 mm 0 W/m2
05:29 20.4 °C 17.8 °C 1012.9 hPa SSW 0.7 km/h 7.9 km/h 84.9% 0.0 mm 0 W/m2
05:34 20.3 °C 17.7 °C 1012.9 hPa SSW 0.4 km/h 7.9 km/h 85% 0.0 mm 0 W/m2
05:39 20.2 °C 17.6 °C 1012.9 hPa SSW 1 km/h 7.9 km/h 85% 0.0 mm 0 W/m2
05:44 20.2 °C 17.6 °C 1012.9 hPa Calm     85% 0.0 mm 0 W/m2
05:49 20.1 °C 17.5 °C 1012.9 hPa South 1.3 km/h 12.2 km/h 85% 0.0 mm 0 W/m2
05:54 20.2 °C 17.6 °C 1012.5 hPa South 3.5 km/h 12.2 km/h 85.4% 0.0 mm 0 W/m2
05:59 20.2 °C 17.8 °C 1012.9 hPa South 4.5 km/h 12.2 km/h 86.1% 0.0 mm 0 W/m2
06:04 20.2 °C 18 °C 1012.5 hPa South 5.2 km/h 12.2 km/h 87.2% 0.0 mm 0 W/m2
06:09 20.2 °C 18.1 °C 1012.9 hPa South 3.9 km/h 12.2 km/h 88% 0.0 mm 3 W/m2
06:14 20.2 °C 18.1 °C 1012.9 hPa South 1.4 km/h 7.9 km/h 88% 0.0 mm 6 W/m2
06:19 20.2 °C 18.1 °C 1012.9 hPa SSW 0.6 km/h 12.2 km/h 88% 0.0 mm 13 W/m2
06:24 20.2 °C 18.1 °C 1012.9 hPa South 3.9 km/h 12.2 km/h 88% 0.0 mm 27 W/m2
06:29 20.2 °C 18.1 °C 1012.9 hPa Calm   12.2 km/h 87.7% 0.0 mm 42 W/m2
06:34 20.4 °C 18.1 °C 1012.9 hPa SSE 0.5 km/h 7.9 km/h 87% 0.0 mm 58 W/m2
06:39 20.6 °C 18.3 °C 1013.2 hPa SSW 0.2 km/h 7.9 km/h 86.3% 0.0 mm 77 W/m2
06:44 20.6 °C 18.2 °C 1013.2 hPa Calm     86% 0.0 mm 92 W/m2
06:49 20.7 °C 18.2 °C 1012.9 hPa Calm     85.9% 0.0 mm 109 W/m2
06:54 20.9 °C 18.3 °C 1012.9 hPa Calm     85.2% 0.0 mm 127 W/m2
06:59 21.2 °C 18.4 °C 1013.2 hPa Calm     84% 0.0 mm 145 W/m2
07:04 21.3 °C 18.5 °C 1012.9 hPa Calm     83.9% 0.0 mm 163 W/m2
07:09 21.4 °C 18.4 °C 1013.2 hPa Calm     83.1% 0.0 mm 176 W/m2
07:14 21.4 °C 18.5 °C 1013.2 hPa Calm     83.3% 0.0 mm 193 W/m2
07:19 21.4 °C 18.6 °C 1013.2 hPa Calm     84.2% 0.0 mm 206 W/m2
07:29 21.2 °C 18.6 °C 1013.2 hPa NNE 0.3 km/h 4 km/h 84.9% 0.0 mm 232 W/m2
07:34 21.1 °C 18.5 °C 1013.2 hPa Calm   4 km/h 84.8% 0.0 mm 245 W/m2
07:39 21.1 °C 18.6 °C 1013.2 hPa Calm     85.3% 0.0 mm 258 W/m2
07:44 21.1 °C 18.8 °C 1013.2 hPa Calm     86.7% 0.0 mm 267 W/m2
07:49 21.1 °C 18.6 °C 1013.5 hPa Calm     85.4% 0.0 mm 277 W/m2
07:54 21.6 °C 18.7 °C 1013.5 hPa Calm     83.7% 0.0 mm 288 W/m2
07:59 22.4 °C 19.2 °C 1013.5 hPa Calm     81.9% 0.0 mm 297 W/m2
08:09 22.8 °C 19.1 °C 1013.5 hPa Calm     79.8% 0.0 mm 314 W/m2
08:14 23.1 °C 19.9 °C 1013.5 hPa SSW 1.8 km/h 7.9 km/h 82.1% 0.0 mm 319 W/m2
08:19 23.7 °C 20.4 °C 1013.5 hPa Calm   4 km/h 82% 0.0 mm 326 W/m2
08:24 23.7 °C 20.3 °C 1013.5 hPa SSE 3.8 km/h 16.3 km/h 82% 0.0 mm 332 W/m2
08:29 23.6 °C 20.3 °C 1013.5 hPa South 4.8 km/h 16.3 km/h 82.2% 0.0 mm 337 W/m2
08:34 23.6 °C 20.4 °C 1013.5 hPa South 7.6 km/h 16.3 km/h 82.8% 0.0 mm 341 W/m2
08:39 23.5 °C 20.4 °C 1013.5 hPa South 5.2 km/h 16.3 km/h 83% 0.0 mm 348 W/m2
08:44 23.4 °C 20.4 °C 1013.5 hPa SSE 5.8 km/h 16.3 km/h 83.6% 0.0 mm 352 W/m2
08:49 23.5 °C 20.5 °C 1013.5 hPa South 6 km/h 16.3 km/h 83.4% 0.0 mm 357 W/m2
08:54 23.6 °C 20.5 °C 1013.5 hPa SE 3.8 km/h 16.3 km/h 82.9% 0.0 mm 362 W/m2
08:59 24 °C 20.9 °C 1013.5 hPa South 4.2 km/h 12.2 km/h 82.9% 0.0 mm 368 W/m2
09:04 24 °C 20.9 °C 1013.5 hPa SE 2.6 km/h 12.2 km/h 83.1% 0.0 mm 373 W/m2
09:09 24.1 °C 21.1 °C 1013.5 hPa SE 4.8 km/h 12.2 km/h 83.7% 0.0 mm 380 W/m2
09:14 24.1 °C 21.1 °C 1013.5 hPa SSE 6 km/h 16.3 km/h 83.6% 0.0 mm 385 W/m2
09:19 24.3 °C 21.2 °C 1013.5 hPa South 5.3 km/h 12.2 km/h 82.8% 0.0 mm 389 W/m2
09:24 24.3 °C 21.2 °C 1013.5 hPa SSE 7.4 km/h 20.1 km/h 82.9% 0.0 mm 392 W/m2
09:29 24.3 °C 21.3 °C 1013.5 hPa South 3.7 km/h 20.1 km/h 83.3% 0.0 mm 402 W/m2
09:34 24.4 °C 21.2 °C 1013.5 hPa SSE 0.8 km/h 16.3 km/h 82.2% 0.0 mm 414 W/m2
09:39 24.9 °C 21.1 °C 1013.5 hPa SSE 3.5 km/h 12.2 km/h 79.7% 0.0 mm 414 W/m2
09:44 24.9 °C 21.1 °C 1013.5 hPa SSE 4.2 km/h 12.2 km/h 79.3% 0.0 mm 415 W/m2
09:49 25 °C 21.4 °C 1013.2 hPa SE 1.2 km/h 7.9 km/h 80.8% 0.0 mm 428 W/m2
09:54 25 °C 21.4 °C 1013.2 hPa SSE 3.3 km/h 7.9 km/h 80.6% 0.0 mm 449 W/m2
09:59 25.4 °C 21.5 °C 1013.2 hPa SSE 1.2 km/h 12.2 km/h 79% 0.0 mm 444 W/m2
10:04 25.4 °C 21.7 °C 1013.2 hPa SSE 3.7 km/h 7.9 km/h 79.8% 0.0 mm 442 W/m2
10:09 25.4 °C 21.8 °C 1012.9 hPa SSE 2.3 km/h 12.2 km/h 80.4% 0.0 mm 446 W/m2
10:14 25.5 °C 21.8 °C 1013.2 hPa SSE 2.4 km/h 12.2 km/h 79.9% 0.0 mm 453 W/m2
10:19 25.8 °C 22.1 °C 1012.9 hPa SSE 1.4 km/h 12.2 km/h 80% 0.0 mm 461 W/m2
10:24 25.8 °C 22.1 °C 1012.9 hPa SSE 2 km/h 7.9 km/h 80.2% 0.0 mm 455 W/m2
10:29 25.7 °C 22.3 °C 1012.9 hPa South 4 km/h 16.3 km/h 81.2% 0.0 mm 467 W/m2
10:34 25.7 °C 22.1 °C 1012.9 hPa SE 2.7 km/h 12.2 km/h 80.7% 0.0 mm 467 W/m2
10:39 26 °C 22.3 °C 1012.9 hPa SSE 4.5 km/h 12.2 km/h 80.2% 0.0 mm 476 W/m2
10:44 25.9 °C 22.4 °C 1012.9 hPa SSE 3.5 km/h 12.2 km/h 81.1% 0.0 mm 483 W/m2
10:49 25.9 °C 22.1 °C 1012.9 hPa South 5.8 km/h 16.3 km/h 79.6% 0.0 mm 488 W/m2
10:54 26 °C 22.2 °C 1012.9 hPa South 4.1 km/h 16.3 km/h 79.9% 0.0 mm 486 W/m2
10:59 26 °C 22.2 °C 1012.9 hPa SSE 3.9 km/h 16.3 km/h 79.8% 0.0 mm 485 W/m2
11:04 26 °C 22.1 °C 1012.5 hPa South 3 km/h 16.3 km/h 79.2% 0.0 mm 489 W/m2
11:09 26.1 °C 22.3 °C 1012.9 hPa SE 3.4 km/h 12.2 km/h 79.4% 0.0 mm 494 W/m2
11:14 26.2 °C 22.2 °C 1012.9 hPa SE 3.9 km/h 12.2 km/h 78.8% 0.0 mm 495 W/m2
11:19 26.5 °C 22.3 °C 1012.5 hPa SSE 4.8 km/h 12.2 km/h 78.2% 0.0 mm 499 W/m2
11:24 26.5 °C 22.7 °C 1012.5 hPa SSE 3.9 km/h 16.3 km/h 79.3% 0.0 mm 500 W/m2
Juneau County Weather
Compliments of Weather Underground - 2 mb